sensor_id;sensor_type;location;lat;lon;timestamp;P1;durP1;ratioP1;P2;durP2;ratioP2
4827;SDS011;2428;48.732;9.148;2023-04-25T00:01:22;1.63;;;1.00;;
4827;SDS011;2428;48.732;9.148;2023-04-25T00:03:48;0.97;;;0.80;;
4827;SDS011;2428;48.732;9.148;2023-04-25T00:06:14;1.27;;;1.20;;
4827;SDS011;2428;48.732;9.148;2023-04-25T00:08:40;1.80;;;1.37;;
4827;SDS011;2428;48.732;9.148;2023-04-25T00:11:05;0.67;;;0.67;;
4827;SDS011;2428;48.732;9.148;2023-04-25T00:13:31;1.03;;;0.93;;
4827;SDS011;2428;48.732;9.148;2023-04-25T00:15:57;0.67;;;0.67;;
4827;SDS011;2428;48.732;9.148;2023-04-25T00:18:23;1.27;;;0.73;;
4827;SDS011;2428;48.732;9.148;2023-04-25T00:20:48;1.07;;;0.93;;
4827;SDS011;2428;48.732;9.148;2023-04-25T00:23:15;1.97;;;0.90;;
4827;SDS011;2428;48.732;9.148;2023-04-25T00:25:43;1.83;;;1.70;;
4827;SDS011;2428;48.732;9.148;2023-04-25T00:28:10;1.52;;;1.42;;
4827;SDS011;2428;48.732;9.148;2023-04-25T00:30:36;2.95;;;1.60;;
4827;SDS011;2428;48.732;9.148;2023-04-25T00:33:01;2.20;;;2.00;;
4827;SDS011;2428;48.732;9.148;2023-04-25T00:35:27;1.03;;;1.03;;
4827;SDS011;2428;48.732;9.148;2023-04-25T00:37:53;0.63;;;0.63;;
4827;SDS011;2428;48.732;9.148;2023-04-25T00:40:20;1.00;;;1.00;;
4827;SDS011;2428;48.732;9.148;2023-04-25T00:42:46;0.97;;;0.97;;
4827;SDS011;2428;48.732;9.148;2023-04-25T00:45:12;1.13;;;1.02;;
4827;SDS011;2428;48.732;9.148;2023-04-25T00:47:41;1.40;;;1.30;;
4827;SDS011;2428;48.732;9.148;2023-04-25T00:50:07;1.17;;;1.17;;
4827;SDS011;2428;48.732;9.148;2023-04-25T00:52:34;1.40;;;1.30;;
4827;SDS011;2428;48.732;9.148;2023-04-25T00:55:00;2.00;;;1.35;;
4827;SDS011;2428;48.732;9.148;2023-04-25T00:57:26;1.37;;;1.27;;
4827;SDS011;2428;48.732;9.148;2023-04-25T00:59:53;1.80;;;1.70;;
4827;SDS011;2428;48.732;9.148;2023-04-25T01:02:20;0.95;;;0.95;;
4827;SDS011;2428;48.732;9.148;2023-04-25T01:04:47;1.10;;;1.10;;
4827;SDS011;2428;48.732;9.148;2023-04-25T01:07:13;2.13;;;1.25;;
4827;SDS011;2428;48.732;9.148;2023-04-25T01:09:39;0.87;;;0.87;;
4827;SDS011;2428;48.732;9.148;2023-04-25T01:12:05;1.48;;;1.48;;
4827;SDS011;2428;48.732;9.148;2023-04-25T01:14:31;0.80;;;0.80;;
4827;SDS011;2428;48.732;9.148;2023-04-25T01:16:57;1.20;;;1.10;;
4827;SDS011;2428;48.732;9.148;2023-04-25T01:19:24;1.00;;;1.00;;
4827;SDS011;2428;48.732;9.148;2023-04-25T01:21:50;3.23;;;1.00;;
4827;SDS011;2428;48.732;9.148;2023-04-25T01:24:15;0.90;;;0.90;;
4827;SDS011;2428;48.732;9.148;2023-04-25T01:26:42;1.37;;;1.10;;
4827;SDS011;2428;48.732;9.148;2023-04-25T01:29:14;1.15;;;0.93;;
4827;SDS011;2428;48.732;9.148;2023-04-25T01:31:43;1.13;;;0.60;;
4827;SDS011;2428;48.732;9.148;2023-04-25T01:34:10;1.48;;;1.48;;
4827;SDS011;2428;48.732;9.148;2023-04-25T01:36:36;1.13;;;1.10;;
4827;SDS011;2428;48.732;9.148;2023-04-25T01:39:01;5.70;;;2.20;;
4827;SDS011;2428;48.732;9.148;2023-04-25T01:41:27;0.90;;;0.90;;
4827;SDS011;2428;48.732;9.148;2023-04-25T01:43:53;1.70;;;0.87;;
4827;SDS011;2428;48.732;9.148;2023-04-25T01:46:19;0.77;;;0.77;;
4827;SDS011;2428;48.732;9.148;2023-04-25T01:48:45;0.77;;;0.77;;
4827;SDS011;2428;48.732;9.148;2023-04-25T01:51:11;0.80;;;0.80;;
4827;SDS011;2428;48.732;9.148;2023-04-25T01:53:37;1.10;;;0.90;;
4827;SDS011;2428;48.732;9.148;2023-04-25T01:56:03;1.40;;;1.30;;
4827;SDS011;2428;48.732;9.148;2023-04-25T01:58:29;0.90;;;0.90;;
4827;SDS011;2428;48.732;9.148;2023-04-25T02:00:55;1.00;;;0.87;;
4827;SDS011;2428;48.732;9.148;2023-04-25T02:03:21;0.80;;;0.80;;
4827;SDS011;2428;48.732;9.148;2023-04-25T02:05:46;1.90;;;1.10;;
4827;SDS011;2428;48.732;9.148;2023-04-25T02:08:12;0.83;;;0.83;;
4827;SDS011;2428;48.732;9.148;2023-04-25T02:10:38;0.83;;;0.83;;
4827;SDS011;2428;48.732;9.148;2023-04-25T02:13:03;2.30;;;1.13;;
4827;SDS011;2428;48.732;9.148;2023-04-25T02:15:30;0.68;;;0.68;;
4827;SDS011;2428;48.732;9.148;2023-04-25T02:17:56;0.50;;;0.50;;
4827;SDS011;2428;48.732;9.148;2023-04-25T02:20:23;1.15;;;1.05;;
4827;SDS011;2428;48.732;9.148;2023-04-25T02:22:49;0.98;;;0.98;;
4827;SDS011;2428;48.732;9.148;2023-04-25T02:25:15;0.50;;;0.50;;
4827;SDS011;2428;48.732;9.148;2023-04-25T02:27:41;1.02;;;0.90;;
4827;SDS011;2428;48.732;9.148;2023-04-25T02:30:08;1.40;;;1.30;;
4827;SDS011;2428;48.732;9.148;2023-04-25T02:32:34;0.77;;;0.77;;
4827;SDS011;2428;48.732;9.148;2023-04-25T02:35:00;0.90;;;0.87;;
4827;SDS011;2428;48.732;9.148;2023-04-25T02:37:29;0.60;;;0.60;;
4827;SDS011;2428;48.732;9.148;2023-04-25T02:39:56;0.60;;;0.60;;
4827;SDS011;2428;48.732;9.148;2023-04-25T02:42:21;1.50;;;1.07;;
4827;SDS011;2428;48.732;9.148;2023-04-25T02:44:47;0.80;;;0.80;;
4827;SDS011;2428;48.732;9.148;2023-04-25T02:47:12;0.97;;;0.77;;
4827;SDS011;2428;48.732;9.148;2023-04-25T02:49:38;0.50;;;0.50;;
4827;SDS011;2428;48.732;9.148;2023-04-25T02:52:03;1.00;;;0.90;;
4827;SDS011;2428;48.732;9.148;2023-04-25T02:54:29;0.70;;;0.70;;
4827;SDS011;2428;48.732;9.148;2023-04-25T02:56:55;0.63;;;0.63;;
4827;SDS011;2428;48.732;9.148;2023-04-25T02:59:21;2.67;;;0.90;;
4827;SDS011;2428;48.732;9.148;2023-04-25T03:01:46;1.50;;;1.10;;
4827;SDS011;2428;48.732;9.148;2023-04-25T03:04:12;1.03;;;0.93;;
4827;SDS011;2428;48.732;9.148;2023-04-25T03:06:38;1.20;;;1.10;;
4827;SDS011;2428;48.732;9.148;2023-04-25T03:09:03;1.00;;;1.00;;
4827;SDS011;2428;48.732;9.148;2023-04-25T03:11:29;1.13;;;0.63;;
4827;SDS011;2428;48.732;9.148;2023-04-25T03:13:54;0.80;;;0.80;;
4827;SDS011;2428;48.732;9.148;2023-04-25T03:16:21;1.23;;;1.00;;
4827;SDS011;2428;48.732;9.148;2023-04-25T03:18:46;0.93;;;0.93;;
4827;SDS011;2428;48.732;9.148;2023-04-25T03:21:12;0.80;;;0.80;;
4827;SDS011;2428;48.732;9.148;2023-04-25T03:23:37;0.50;;;0.50;;
4827;SDS011;2428;48.732;9.148;2023-04-25T03:26:03;1.07;;;0.80;;
4827;SDS011;2428;48.732;9.148;2023-04-25T03:28:29;1.23;;;1.13;;
4827;SDS011;2428;48.732;9.148;2023-04-25T03:30:54;0.80;;;0.80;;
4827;SDS011;2428;48.732;9.148;2023-04-25T03:33:20;0.80;;;0.80;;
4827;SDS011;2428;48.732;9.148;2023-04-25T03:35:45;0.40;;;0.40;;
4827;SDS011;2428;48.732;9.148;2023-04-25T03:38:11;1.20;;;1.20;;
4827;SDS011;2428;48.732;9.148;2023-04-25T03:40:37;1.33;;;1.27;;
4827;SDS011;2428;48.732;9.148;2023-04-25T03:43:02;1.60;;;1.33;;
4827;SDS011;2428;48.732;9.148;2023-04-25T03:45:28;1.20;;;1.10;;
4827;SDS011;2428;48.732;9.148;2023-04-25T03:47:53;0.90;;;0.90;;
4827;SDS011;2428;48.732;9.148;2023-04-25T03:50:19;0.70;;;0.70;;
4827;SDS011;2428;48.732;9.148;2023-04-25T03:52:45;1.50;;;1.40;;
4827;SDS011;2428;48.732;9.148;2023-04-25T03:55:10;1.07;;;0.60;;
4827;SDS011;2428;48.732;9.148;2023-04-25T03:57:36;0.60;;;0.60;;
4827;SDS011;2428;48.732;9.148;2023-04-25T04:00:01;1.17;;;1.17;;
4827;SDS011;2428;48.732;9.148;2023-04-25T04:02:28;2.80;;;0.80;;
4827;SDS011;2428;48.732;9.148;2023-04-25T04:04:54;0.87;;;0.60;;
4827;SDS011;2428;48.732;9.148;2023-04-25T04:07:21;1.35;;;1.25;;
4827;SDS011;2428;48.732;9.148;2023-04-25T04:09:47;0.80;;;0.80;;
4827;SDS011;2428;48.732;9.148;2023-04-25T04:12:12;1.03;;;1.03;;
4827;SDS011;2428;48.732;9.148;2023-04-25T04:14:38;0.90;;;0.83;;
4827;SDS011;2428;48.732;9.148;2023-04-25T04:17:05;0.60;;;0.60;;
4827;SDS011;2428;48.732;9.148;2023-04-25T04:19:31;1.03;;;1.03;;
4827;SDS011;2428;48.732;9.148;2023-04-25T04:21:56;0.70;;;0.70;;
4827;SDS011;2428;48.732;9.148;2023-04-25T04:24:22;1.58;;;0.95;;
4827;SDS011;2428;48.732;9.148;2023-04-25T04:26:49;1.42;;;1.42;;
4827;SDS011;2428;48.732;9.148;2023-04-25T04:29:15;0.90;;;0.90;;
4827;SDS011;2428;48.732;9.148;2023-04-25T04:31:47;0.80;;;0.80;;
4827;SDS011;2428;48.732;9.148;2023-04-25T04:34:14;1.38;;;1.38;;
4827;SDS011;2428;48.732;9.148;2023-04-25T04:36:41;2.58;;;1.60;;
4827;SDS011;2428;48.732;9.148;2023-04-25T04:39:07;2.97;;;1.90;;
4827;SDS011;2428;48.732;9.148;2023-04-25T04:41:34;2.35;;;1.25;;
4827;SDS011;2428;48.732;9.148;2023-04-25T04:43:59;1.07;;;0.60;;
4827;SDS011;2428;48.732;9.148;2023-04-25T04:46:26;1.00;;;1.00;;
4827;SDS011;2428;48.732;9.148;2023-04-25T04:48:52;0.75;;;0.75;;
4827;SDS011;2428;48.732;9.148;2023-04-25T04:51:18;0.60;;;0.60;;
4827;SDS011;2428;48.732;9.148;2023-04-25T04:53:45;1.02;;;1.02;;
4827;SDS011;2428;48.732;9.148;2023-04-25T04:56:11;0.80;;;0.80;;
4827;SDS011;2428;48.732;9.148;2023-04-25T04:58:36;0.70;;;0.70;;
4827;SDS011;2428;48.732;9.148;2023-04-25T05:01:02;1.40;;;1.40;;
4827;SDS011;2428;48.732;9.148;2023-04-25T05:03:28;1.13;;;0.63;;
4827;SDS011;2428;48.732;9.148;2023-04-25T05:05:53;0.97;;;0.97;;
4827;SDS011;2428;48.732;9.148;2023-04-25T05:08:19;1.07;;;0.97;;
4827;SDS011;2428;48.732;9.148;2023-04-25T05:10:45;0.70;;;0.70;;
4827;SDS011;2428;48.732;9.148;2023-04-25T05:13:10;1.23;;;1.13;;
4827;SDS011;2428;48.732;9.148;2023-04-25T05:15:36;1.77;;;1.20;;
4827;SDS011;2428;48.732;9.148;2023-04-25T05:18:01;0.80;;;0.80;;
4827;SDS011;2428;48.732;9.148;2023-04-25T05:20:27;1.07;;;1.07;;
4827;SDS011;2428;48.732;9.148;2023-04-25T05:22:52;1.10;;;1.00;;
4827;SDS011;2428;48.732;9.148;2023-04-25T05:25:18;1.63;;;1.23;;
4827;SDS011;2428;48.732;9.148;2023-04-25T05:27:44;2.17;;;1.40;;
4827;SDS011;2428;48.732;9.148;2023-04-25T05:30:09;0.93;;;0.93;;
4827;SDS011;2428;48.732;9.148;2023-04-25T05:32:35;1.60;;;1.40;;
4827;SDS011;2428;48.732;9.148;2023-04-25T05:35:01;1.45;;;1.35;;
4827;SDS011;2428;48.732;9.148;2023-04-25T05:37:27;2.45;;;1.33;;
4827;SDS011;2428;48.732;9.148;2023-04-25T05:39:55;1.55;;;1.45;;
4827;SDS011;2428;48.732;9.148;2023-04-25T05:42:21;1.70;;;1.10;;
4827;SDS011;2428;48.732;9.148;2023-04-25T05:44:46;1.83;;;1.70;;
4827;SDS011;2428;48.732;9.148;2023-04-25T05:47:12;1.70;;;1.13;;
4827;SDS011;2428;48.732;9.148;2023-04-25T05:49:37;2.10;;;1.43;;
4827;SDS011;2428;48.732;9.148;2023-04-25T05:52:03;1.87;;;1.73;;
4827;SDS011;2428;48.732;9.148;2023-04-25T05:54:29;1.17;;;1.07;;
4827;SDS011;2428;48.732;9.148;2023-04-25T05:56:56;2.73;;;1.80;;
4827;SDS011;2428;48.732;9.148;2023-04-25T05:59:21;1.17;;;1.17;;
4827;SDS011;2428;48.732;9.148;2023-04-25T06:01:47;2.20;;;1.77;;
4827;SDS011;2428;48.732;9.148;2023-04-25T06:04:13;1.70;;;1.60;;
4827;SDS011;2428;48.732;9.148;2023-04-25T06:06:38;1.43;;;1.07;;
4827;SDS011;2428;48.732;9.148;2023-04-25T06:09:04;2.60;;;1.37;;
4827;SDS011;2428;48.732;9.148;2023-04-25T06:11:29;1.90;;;1.10;;
4827;SDS011;2428;48.732;9.148;2023-04-25T06:13:55;1.20;;;1.10;;
4827;SDS011;2428;48.732;9.148;2023-04-25T06:16:20;1.07;;;0.80;;
4827;SDS011;2428;48.732;9.148;2023-04-25T06:18:46;1.00;;;0.97;;
4827;SDS011;2428;48.732;9.148;2023-04-25T06:21:12;2.20;;;1.77;;
4827;SDS011;2428;48.732;9.148;2023-04-25T06:23:37;0.93;;;0.80;;
4827;SDS011;2428;48.732;9.148;2023-04-25T06:26:03;1.87;;;1.77;;
4827;SDS011;2428;48.732;9.148;2023-04-25T06:28:28;1.40;;;1.10;;
4827;SDS011;2428;48.732;9.148;2023-04-25T06:30:54;1.13;;;1.13;;
4827;SDS011;2428;48.732;9.148;2023-04-25T06:33:20;1.13;;;1.03;;
4827;SDS011;2428;48.732;9.148;2023-04-25T06:35:46;1.43;;;1.10;;
4827;SDS011;2428;48.732;9.148;2023-04-25T06:38:12;1.00;;;0.93;;
4827;SDS011;2428;48.732;9.148;2023-04-25T06:40:37;1.23;;;1.10;;
4827;SDS011;2428;48.732;9.148;2023-04-25T06:43:03;1.77;;;1.00;;
4827;SDS011;2428;48.732;9.148;2023-04-25T06:45:29;2.15;;;1.35;;
4827;SDS011;2428;48.732;9.148;2023-04-25T06:47:55;1.20;;;1.10;;
4827;SDS011;2428;48.732;9.148;2023-04-25T06:50:20;1.10;;;1.10;;
4827;SDS011;2428;48.732;9.148;2023-04-25T06:52:46;0.87;;;0.87;;
4827;SDS011;2428;48.732;9.148;2023-04-25T06:55:12;0.73;;;0.73;;
4827;SDS011;2428;48.732;9.148;2023-04-25T06:57:37;0.83;;;0.83;;
4827;SDS011;2428;48.732;9.148;2023-04-25T07:00:03;1.20;;;1.20;;
4827;SDS011;2428;48.732;9.148;2023-04-25T07:02:33;1.35;;;1.23;;
4827;SDS011;2428;48.732;9.148;2023-04-25T07:04:58;1.37;;;1.37;;
4827;SDS011;2428;48.732;9.148;2023-04-25T07:07:25;1.03;;;1.00;;
4827;SDS011;2428;48.732;9.148;2023-04-25T07:09:51;2.42;;;2.22;;
4827;SDS011;2428;48.732;9.148;2023-04-25T07:12:16;1.33;;;1.23;;
4827;SDS011;2428;48.732;9.148;2023-04-25T07:14:42;0.97;;;0.97;;
4827;SDS011;2428;48.732;9.148;2023-04-25T07:17:07;0.77;;;0.77;;
4827;SDS011;2428;48.732;9.148;2023-04-25T07:19:33;1.23;;;1.23;;
4827;SDS011;2428;48.732;9.148;2023-04-25T07:21:59;1.25;;;0.95;;
4827;SDS011;2428;48.732;9.148;2023-04-25T07:24:25;1.23;;;1.23;;
4827;SDS011;2428;48.732;9.148;2023-04-25T07:26:51;1.27;;;1.23;;
4827;SDS011;2428;48.732;9.148;2023-04-25T07:29:16;1.30;;;1.10;;
4827;SDS011;2428;48.732;9.148;2023-04-25T07:31:42;1.27;;;1.10;;
4827;SDS011;2428;48.732;9.148;2023-04-25T07:34:07;0.97;;;0.97;;
4827;SDS011;2428;48.732;9.148;2023-04-25T07:36:33;0.93;;;0.93;;
4827;SDS011;2428;48.732;9.148;2023-04-25T07:38:58;1.73;;;1.57;;
4827;SDS011;2428;48.732;9.148;2023-04-25T07:41:24;3.50;;;1.47;;
4827;SDS011;2428;48.732;9.148;2023-04-25T07:43:49;2.60;;;2.00;;
4827;SDS011;2428;48.732;9.148;2023-04-25T07:46:15;2.00;;;1.90;;
4827;SDS011;2428;48.732;9.148;2023-04-25T07:48:41;1.67;;;1.67;;
4827;SDS011;2428;48.732;9.148;2023-04-25T07:51:06;1.90;;;1.07;;
4827;SDS011;2428;48.732;9.148;2023-04-25T07:53:32;1.80;;;1.47;;
4827;SDS011;2428;48.732;9.148;2023-04-25T07:55:59;1.52;;;1.50;;
4827;SDS011;2428;48.732;9.148;2023-04-25T07:58:25;1.90;;;1.80;;
4827;SDS011;2428;48.732;9.148;2023-04-25T08:00:50;1.33;;;1.33;;
4827;SDS011;2428;48.732;9.148;2023-04-25T08:03:16;2.00;;;1.80;;
4827;SDS011;2428;48.732;9.148;2023-04-25T08:05:42;1.27;;;1.17;;
4827;SDS011;2428;48.732;9.148;2023-04-25T08:08:07;1.43;;;1.33;;
4827;SDS011;2428;48.732;9.148;2023-04-25T08:10:33;1.00;;;1.00;;
4827;SDS011;2428;48.732;9.148;2023-04-25T08:12:59;2.47;;;1.17;;
4827;SDS011;2428;48.732;9.148;2023-04-25T08:15:25;1.60;;;1.50;;
4827;SDS011;2428;48.732;9.148;2023-04-25T08:17:51;1.52;;;1.20;;
4827;SDS011;2428;48.732;9.148;2023-04-25T08:20:16;1.97;;;1.83;;
4827;SDS011;2428;48.732;9.148;2023-04-25T08:22:42;1.00;;;1.00;;
4827;SDS011;2428;48.732;9.148;2023-04-25T08:25:08;1.30;;;1.00;;
4827;SDS011;2428;48.732;9.148;2023-04-25T08:27:34;0.90;;;0.90;;
4827;SDS011;2428;48.732;9.148;2023-04-25T08:29:59;2.87;;;0.93;;
4827;SDS011;2428;48.732;9.148;2023-04-25T08:32:26;0.90;;;0.90;;
4827;SDS011;2428;48.732;9.148;2023-04-25T08:34:52;1.50;;;1.40;;
4827;SDS011;2428;48.732;9.148;2023-04-25T08:37:20;1.00;;;1.00;;
4827;SDS011;2428;48.732;9.148;2023-04-25T08:39:46;1.53;;;1.43;;
4827;SDS011;2428;48.732;9.148;2023-04-25T08:42:13;2.55;;;1.90;;
4827;SDS011;2428;48.732;9.148;2023-04-25T08:44:40;2.72;;;2.22;;
4827;SDS011;2428;48.732;9.148;2023-04-25T08:47:06;1.90;;;1.60;;
4827;SDS011;2428;48.732;9.148;2023-04-25T08:49:32;1.67;;;1.55;;
4827;SDS011;2428;48.732;9.148;2023-04-25T08:52:03;3.58;;;1.80;;
4827;SDS011;2428;48.732;9.148;2023-04-25T08:54:32;1.75;;;1.65;;
4827;SDS011;2428;48.732;9.148;2023-04-25T08:57:01;4.13;;;3.30;;
4827;SDS011;2428;48.732;9.148;2023-04-25T08:59:29;2.08;;;1.70;;
4827;SDS011;2428;48.732;9.148;2023-04-25T09:01:56;4.55;;;1.73;;
4827;SDS011;2428;48.732;9.148;2023-04-25T09:04:22;1.23;;;1.13;;
4827;SDS011;2428;48.732;9.148;2023-04-25T09:06:48;0.80;;;0.80;;
4827;SDS011;2428;48.732;9.148;2023-04-25T09:09:14;1.13;;;1.03;;
4827;SDS011;2428;48.732;9.148;2023-04-25T09:11:40;1.30;;;1.27;;
4827;SDS011;2428;48.732;9.148;2023-04-25T09:14:16;1.73;;;1.25;;
4827;SDS011;2428;48.732;9.148;2023-04-25T09:19:42;1.88;;;1.65;;
4827;SDS011;2428;48.732;9.148;2023-04-25T09:22:10;2.28;;;1.27;;
4827;SDS011;2428;48.732;9.148;2023-04-25T09:27:05;0.80;;;0.80;;
4827;SDS011;2428;48.732;9.148;2023-04-25T09:29:35;1.33;;;1.23;;
4827;SDS011;2428;48.732;9.148;2023-04-25T09:34:47;1.63;;;1.52;;
4827;SDS011;2428;48.732;9.148;2023-04-25T09:37:18;1.27;;;1.27;;
4827;SDS011;2428;48.732;9.148;2023-04-25T09:39:46;1.95;;;1.63;;
4827;SDS011;2428;48.732;9.148;2023-04-25T09:42:13;1.80;;;1.35;;
4827;SDS011;2428;48.732;9.148;2023-04-25T09:44:44;1.30;;;1.20;;
4827;SDS011;2428;48.732;9.148;2023-04-25T09:47:14;1.70;;;1.60;;
4827;SDS011;2428;48.732;9.148;2023-04-25T09:49:41;1.95;;;1.83;;
4827;SDS011;2428;48.732;9.148;2023-04-25T09:52:08;0.90;;;0.90;;
4827;SDS011;2428;48.732;9.148;2023-04-25T09:54:38;1.63;;;1.52;;
4827;SDS011;2428;48.732;9.148;2023-04-25T09:57:10;2.03;;;1.30;;
4827;SDS011;2428;48.732;9.148;2023-04-25T09:59:50;2.50;;;1.40;;
4827;SDS011;2428;48.732;9.148;2023-04-25T10:02:18;3.22;;;2.92;;
4827;SDS011;2428;48.732;9.148;2023-04-25T10:04:49;1.50;;;1.40;;
4827;SDS011;2428;48.732;9.148;2023-04-25T10:07:18;1.20;;;1.17;;
4827;SDS011;2428;48.732;9.148;2023-04-25T10:09:45;1.40;;;0.82;;
4827;SDS011;2428;48.732;9.148;2023-04-25T10:12:14;0.85;;;0.85;;
4827;SDS011;2428;48.732;9.148;2023-04-25T10:14:41;0.80;;;0.80;;
4827;SDS011;2428;48.732;9.148;2023-04-25T10:17:08;0.40;;;0.40;;
4827;SDS011;2428;48.732;9.148;2023-04-25T10:19:36;0.60;;;0.60;;
4827;SDS011;2428;48.732;9.148;2023-04-25T10:22:14;0.60;;;0.60;;
4827;SDS011;2428;48.732;9.148;2023-04-25T10:24:45;0.50;;;0.50;;
4827;SDS011;2428;48.732;9.148;2023-04-25T10:27:12;0.88;;;0.88;;
4827;SDS011;2428;48.732;9.148;2023-04-25T10:29:38;0.50;;;0.50;;
4827;SDS011;2428;48.732;9.148;2023-04-25T10:32:03;0.87;;;0.87;;
4827;SDS011;2428;48.732;9.148;2023-04-25T10:34:39;0.88;;;0.45;;
4827;SDS011;2428;48.732;9.148;2023-04-25T10:37:08;0.75;;;0.68;;
4827;SDS011;2428;48.732;9.148;2023-04-25T10:39:35;0.40;;;0.40;;
4827;SDS011;2428;48.732;9.148;2023-04-25T10:42:02;0.35;;;0.35;;
4827;SDS011;2428;48.732;9.148;2023-04-25T10:44:29;0.67;;;0.60;;
4827;SDS011;2428;48.732;9.148;2023-04-25T10:46:56;0.40;;;0.40;;
4827;SDS011;2428;48.732;9.148;2023-04-25T10:49:33;0.60;;;0.47;;
4827;SDS011;2428;48.732;9.148;2023-04-25T10:54:55;0.73;;;0.40;;
4827;SDS011;2428;48.732;9.148;2023-04-25T10:57:31;0.30;;;0.30;;
4827;SDS011;2428;48.732;9.148;2023-04-25T11:00:18;0.50;;;0.50;;
4827;SDS011;2428;48.732;9.148;2023-04-25T11:05:18;0.40;;;0.40;;
4827;SDS011;2428;48.732;9.148;2023-04-25T11:07:54;0.50;;;0.50;;
4827;SDS011;2428;48.732;9.148;2023-04-25T11:10:26;0.38;;;0.38;;
4827;SDS011;2428;48.732;9.148;2023-04-25T11:12:53;0.88;;;0.57;;
4827;SDS011;2428;48.732;9.148;2023-04-25T11:15:18;1.20;;;1.10;;
4827;SDS011;2428;48.732;9.148;2023-04-25T11:17:44;1.00;;;1.00;;
4827;SDS011;2428;48.732;9.148;2023-04-25T11:20:11;1.13;;;0.60;;
4827;SDS011;2428;48.732;9.148;2023-04-25T11:22:38;0.52;;;0.52;;
4827;SDS011;2428;48.732;9.148;2023-04-25T11:25:08;0.50;;;0.47;;
4827;SDS011;2428;48.732;9.148;2023-04-25T11:27:36;1.77;;;1.15;;
4827;SDS011;2428;48.732;9.148;2023-04-25T11:30:23;0.90;;;0.90;;
4827;SDS011;2428;48.732;9.148;2023-04-25T11:32:50;1.02;;;0.90;;
4827;SDS011;2428;48.732;9.148;2023-04-25T11:35:17;1.02;;;0.70;;
4827;SDS011;2428;48.732;9.148;2023-04-25T11:37:43;0.60;;;0.60;;
4827;SDS011;2428;48.732;9.148;2023-04-25T11:40:10;0.47;;;0.47;;
4827;SDS011;2428;48.732;9.148;2023-04-25T11:42:37;1.02;;;1.02;;
4827;SDS011;2428;48.732;9.148;2023-04-25T11:45:03;1.13;;;0.90;;
4827;SDS011;2428;48.732;9.148;2023-04-25T11:47:30;1.00;;;1.00;;
4827;SDS011;2428;48.732;9.148;2023-04-25T11:50:03;0.65;;;0.65;;
4827;SDS011;2428;48.732;9.148;2023-04-25T11:52:40;0.90;;;0.90;;
4827;SDS011;2428;48.732;9.148;2023-04-25T11:57:41;0.60;;;0.60;;
4827;SDS011;2428;48.732;9.148;2023-04-25T12:02:41;1.40;;;1.00;;
4827;SDS011;2428;48.732;9.148;2023-04-25T12:05:11;1.55;;;1.45;;
4827;SDS011;2428;48.732;9.148;2023-04-25T12:07:40;1.35;;;1.25;;
4827;SDS011;2428;48.732;9.148;2023-04-25T12:12:36;0.90;;;0.90;;
4827;SDS011;2428;48.732;9.148;2023-04-25T12:17:36;1.48;;;1.38;;
4827;SDS011;2428;48.732;9.148;2023-04-25T12:20:10;1.15;;;1.15;;
4827;SDS011;2428;48.732;9.148;2023-04-25T12:22:40;2.30;;;2.10;;
4827;SDS011;2428;48.732;9.148;2023-04-25T12:25:13;2.28;;;1.15;;
4827;SDS011;2428;48.732;9.148;2023-04-25T12:33:20;3.75;;;1.88;;
4827;SDS011;2428;48.732;9.148;2023-04-25T12:35:46;1.67;;;1.58;;
4827;SDS011;2428;48.732;9.148;2023-04-25T12:38:20;1.60;;;1.50;;
4827;SDS011;2428;48.732;9.148;2023-04-25T12:40:50;1.40;;;1.08;;
4827;SDS011;2428;48.732;9.148;2023-04-25T12:43:15;2.10;;;1.87;;
4827;SDS011;2428;48.732;9.148;2023-04-25T12:45:42;1.42;;;0.95;;
4827;SDS011;2428;48.732;9.148;2023-04-25T12:48:07;1.97;;;1.57;;
4827;SDS011;2428;48.732;9.148;2023-04-25T12:50:33;2.80;;;1.60;;
4827;SDS011;2428;48.732;9.148;2023-04-25T12:52:58;3.17;;;1.63;;
4827;SDS011;2428;48.732;9.148;2023-04-25T12:55:24;2.33;;;1.73;;
4827;SDS011;2428;48.732;9.148;2023-04-25T12:57:51;1.27;;;1.27;;
4827;SDS011;2428;48.732;9.148;2023-04-25T13:00:17;2.63;;;1.88;;
4827;SDS011;2428;48.732;9.148;2023-04-25T13:02:44;3.53;;;2.15;;
4827;SDS011;2428;48.732;9.148;2023-04-25T13:05:11;1.35;;;1.25;;
4827;SDS011;2428;48.732;9.148;2023-04-25T13:07:37;2.10;;;2.00;;
4827;SDS011;2428;48.732;9.148;2023-04-25T13:10:03;2.43;;;1.77;;
4827;SDS011;2428;48.732;9.148;2023-04-25T13:12:30;1.90;;;1.80;;
4827;SDS011;2428;48.732;9.148;2023-04-25T13:14:56;1.93;;;1.77;;
4827;SDS011;2428;48.732;9.148;2023-04-25T13:17:22;1.27;;;1.17;;
4827;SDS011;2428;48.732;9.148;2023-04-25T13:19:47;2.13;;;1.93;;
4827;SDS011;2428;48.732;9.148;2023-04-25T13:22:13;3.47;;;3.17;;
4827;SDS011;2428;48.732;9.148;2023-04-25T13:24:40;2.47;;;2.23;;
4827;SDS011;2428;48.732;9.148;2023-04-25T13:27:06;2.10;;;1.80;;
4827;SDS011;2428;48.732;9.148;2023-04-25T13:29:32;1.67;;;1.57;;
4827;SDS011;2428;48.732;9.148;2023-04-25T13:32:00;1.97;;;1.80;;
4827;SDS011;2428;48.732;9.148;2023-04-25T13:34:26;1.60;;;1.53;;
4827;SDS011;2428;48.732;9.148;2023-04-25T13:36:53;2.97;;;2.40;;
4827;SDS011;2428;48.732;9.148;2023-04-25T13:39:18;2.60;;;1.93;;
4827;SDS011;2428;48.732;9.148;2023-04-25T13:41:44;2.65;;;2.05;;
4827;SDS011;2428;48.732;9.148;2023-04-25T13:44:10;2.60;;;1.70;;
4827;SDS011;2428;48.732;9.148;2023-04-25T13:46:36;4.73;;;2.03;;
4827;SDS011;2428;48.732;9.148;2023-04-25T13:49:02;3.23;;;2.30;;
4827;SDS011;2428;48.732;9.148;2023-04-25T13:51:31;2.77;;;2.10;;
4827;SDS011;2428;48.732;9.148;2023-04-25T13:53:56;2.40;;;2.10;;
4827;SDS011;2428;48.732;9.148;2023-04-25T13:56:22;2.17;;;2.00;;
4827;SDS011;2428;48.732;9.148;2023-04-25T13:58:49;3.22;;;2.22;;
4827;SDS011;2428;48.732;9.148;2023-04-25T14:01:16;4.45;;;3.45;;
4827;SDS011;2428;48.732;9.148;2023-04-25T14:03:42;3.50;;;2.73;;
4827;SDS011;2428;48.732;9.148;2023-04-25T14:06:07;2.63;;;2.43;;
4827;SDS011;2428;48.732;9.148;2023-04-25T14:08:33;4.70;;;2.10;;
4827;SDS011;2428;48.732;9.148;2023-04-25T14:10:59;2.42;;;2.20;;
4827;SDS011;2428;48.732;9.148;2023-04-25T14:13:25;2.23;;;2.10;;
4827;SDS011;2428;48.732;9.148;2023-04-25T14:15:51;6.73;;;2.17;;
4827;SDS011;2428;48.732;9.148;2023-04-25T14:18:17;2.87;;;2.50;;
4827;SDS011;2428;48.732;9.148;2023-04-25T14:20:43;3.70;;;2.20;;
4827;SDS011;2428;48.732;9.148;2023-04-25T14:23:09;3.23;;;2.93;;
4827;SDS011;2428;48.732;9.148;2023-04-25T14:25:35;2.40;;;2.30;;
4827;SDS011;2428;48.732;9.148;2023-04-25T14:28:01;2.77;;;2.60;;
4827;SDS011;2428;48.732;9.148;2023-04-25T14:30:27;2.93;;;2.23;;
4827;SDS011;2428;48.732;9.148;2023-04-25T14:32:53;4.27;;;3.10;;
4827;SDS011;2428;48.732;9.148;2023-04-25T14:35:19;2.03;;;1.77;;
4827;SDS011;2428;48.732;9.148;2023-04-25T14:37:45;3.40;;;2.33;;
4827;SDS011;2428;48.732;9.148;2023-04-25T14:40:11;2.93;;;2.73;;
4827;SDS011;2428;48.732;9.148;2023-04-25T14:42:38;2.03;;;1.77;;
4827;SDS011;2428;48.732;9.148;2023-04-25T14:45:05;1.80;;;1.70;;
4827;SDS011;2428;48.732;9.148;2023-04-25T14:47:34;2.30;;;2.20;;
4827;SDS011;2428;48.732;9.148;2023-04-25T14:50:03;3.90;;;1.70;;
4827;SDS011;2428;48.732;9.148;2023-04-25T14:52:30;1.70;;;1.43;;
4827;SDS011;2428;48.732;9.148;2023-04-25T14:54:56;1.70;;;1.57;;
4827;SDS011;2428;48.732;9.148;2023-04-25T14:57:21;1.70;;;1.60;;
4827;SDS011;2428;48.732;9.148;2023-04-25T14:59:47;1.53;;;1.43;;
4827;SDS011;2428;48.732;9.148;2023-04-25T15:02:13;2.23;;;2.10;;
4827;SDS011;2428;48.732;9.148;2023-04-25T15:04:38;2.23;;;2.00;;
4827;SDS011;2428;48.732;9.148;2023-04-25T15:07:04;2.33;;;2.20;;
4827;SDS011;2428;48.732;9.148;2023-04-25T15:09:30;1.67;;;1.67;;
4827;SDS011;2428;48.732;9.148;2023-04-25T15:11:56;2.00;;;1.30;;
4827;SDS011;2428;48.732;9.148;2023-04-25T15:14:22;1.60;;;1.50;;
4827;SDS011;2428;48.732;9.148;2023-04-25T15:16:48;1.70;;;1.60;;
4827;SDS011;2428;48.732;9.148;2023-04-25T15:19:13;1.20;;;1.10;;
4827;SDS011;2428;48.732;9.148;2023-04-25T15:21:39;5.23;;;1.30;;
4827;SDS011;2428;48.732;9.148;2023-04-25T15:24:05;1.47;;;1.37;;
4827;SDS011;2428;48.732;9.148;2023-04-25T15:26:31;1.77;;;1.60;;
4827;SDS011;2428;48.732;9.148;2023-04-25T15:28:56;1.43;;;1.33;;
4827;SDS011;2428;48.732;9.148;2023-04-25T15:31:23;1.17;;;1.17;;
4827;SDS011;2428;48.732;9.148;2023-04-25T15:33:48;2.83;;;1.50;;
4827;SDS011;2428;48.732;9.148;2023-04-25T15:36:14;1.67;;;1.47;;
4827;SDS011;2428;48.732;9.148;2023-04-25T15:38:41;0.90;;;0.90;;
4827;SDS011;2428;48.732;9.148;2023-04-25T15:41:07;1.90;;;1.80;;